Time;durP1;ratioP1;P1;durP2;ratioP2;P2;SDS_P1;SDS_P2;PMS_P1;PMS_P2;Temp;Humidity;BMP_temperature;BMP_pressure;BME280_temperature;BME280_humidity;BME280_pressure;Samples;Min_cycle;Max_cycle;Signal;HPM_P1;HPM_P2
2022/06/15 00:02:08;;;;;;;7.60;3.05;;;16.60;93.30;;;13.28;93.74;100839.81;5030721;28;20045;-78
2022/06/15 00:04:37;;;;;;;6.68;3.03;;;16.60;93.30;;;13.45;92.51;100834.97;5030949;28;20517;-78
2022/06/15 00:07:05;;;;;;;9.07;3.05;;;16.60;93.10;;;13.46;93.85;100830.34;5032065;28;20037;-78
2022/06/15 00:09:32;;;;;;;6.45;2.70;;;16.60;93.60;;;13.38;93.51;100819.56;5031278;28;20503;-78
2022/06/15 00:12:00;;;;;;;8.00;2.85;;;16.60;93.70;;;13.39;93.38;100813.06;5022533;28;20104;-78
2022/06/15 00:14:29;;;;;;;8.02;3.45;;;16.60;93.60;;;13.42;93.65;100812.66;5024076;28;20041;-78
2022/06/15 00:16:57;;;;;;;8.38;3.17;;;16.60;93.90;;;13.46;93.84;100808.47;5030997;28;20041;-78
2022/06/15 00:19:24;;;;;;;8.73;3.08;;;16.60;94.00;;;13.45;93.29;100802.16;5024992;28;20522;-78
2022/06/15 00:21:53;;;;;;;11.75;3.42;;;16.60;93.80;;;13.48;92.58;100800.94;5031181;28;20121;-78
2022/06/15 00:24:20;;;;;;;9.13;3.50;;;16.60;93.50;;;13.55;93.07;100817.41;5031581;28;20034;-78
2022/06/15 00:26:47;;;;;;;9.80;3.33;;;16.60;93.50;;;13.38;94.23;100805.88;5030630;28;20038;-78
2022/06/15 00:29:15;;;;;;;6.68;2.90;;;16.60;94.20;;;13.34;94.72;100815.53;5031450;28;20045;-78
2022/06/15 00:31:42;;;;;;;9.38;3.30;;;16.60;94.40;;;13.29;94.74;100814.19;5031084;28;20077;-78
2022/06/15 00:34:11;;;;;;;5.65;2.85;;;16.50;94.60;;;13.25;94.19;100807.44;5046097;28;20044;-78
2022/06/15 00:36:38;;;;;;;5.78;2.67;;;16.50;94.40;;;13.22;94.56;100807.81;5029894;28;20283;-78
2022/06/15 00:39:07;;;;;;;7.85;2.83;;;16.50;94.30;;;13.23;95.08;100809.53;5046610;28;20091;-78
2022/06/15 00:41:37;;;;;;;9.85;3.22;;;16.50;94.40;;;13.21;93.99;100808.00;5026049;28;20092;-78
2022/06/15 00:44:32;;;;;;;7.07;3.13;;;16.40;94.20;;;13.23;94.28;100803.19;5030448;28;20030;-78
2022/06/15 00:47:02;;;;;;;9.18;3.22;;;16.50;94.40;;;13.22;94.79;100806.97;5037563;28;20049;-78
2022/06/15 00:49:35;;;;;;;8.67;3.47;;;16.40;94.30;;;13.17;94.81;100803.97;5029402;28;20045;-77
2022/06/15 00:52:08;;;;;;;6.38;2.83;;;16.40;94.50;;;13.18;94.57;100792.84;5037026;28;20156;-78
2022/06/15 00:54:37;;;;;;;8.40;3.28;;;16.40;94.30;;;13.17;94.52;100793.88;5022369;28;20076;-78
2022/06/15 00:57:06;;;;;;;8.82;3.67;;;16.40;94.30;;;13.10;95.18;100788.34;5030822;28;20041;-77
2022/06/15 00:59:36;;;;;;;8.23;3.10;;;16.40;94.60;;;13.10;94.97;100787.53;5029825;28;20057;-78
2022/06/15 01:02:04;;;;;;;8.85;2.90;;;16.30;94.70;;;13.10;95.02;100787.53;5043111;28;20498;-78
2022/06/15 01:04:39;;;;;;;10.23;3.38;;;16.30;94.80;;;13.06;95.00;100775.25;5029973;28;20045;-78
2022/06/15 01:07:17;;;;;;;7.88;3.10;;;16.30;94.70;;;12.99;95.07;100779.84;5043243;28;20041;-78
2022/06/15 01:09:57;;;;;;;8.13;3.40;;;16.30;94.60;;;12.95;96.49;100775.81;5029647;28;20054;-78
2022/06/15 01:12:31;;;;;;;10.00;3.38;;;16.30;94.90;;;12.93;96.18;100777.84;5030589;28;20100;-78
2022/06/15 01:15:25;;;;;;;10.70;4.00;;;16.20;94.90;;;12.85;96.79;100785.16;5044700;28;20099;-78
2022/06/15 01:18:11;;;;;;;8.77;3.30;;;16.30;95.40;;;12.81;97.29;100789.31;5024085;28;20045;-78
2022/06/15 01:21:09;;;;;;;9.80;3.38;;;16.20;95.20;;;12.75;97.44;100789.22;5030575;28;20046;-78
2022/06/15 01:24:42;;;;;;;9.32;3.25;;;16.10;95.30;;;12.65;98.19;100793.09;5007207;28;20049;-77
2022/06/15 01:27:53;;;;;;;7.07;3.22;;;16.10;95.70;;;12.64;98.61;100793.28;5028669;28;20048;-78
2022/06/15 01:30:32;;;;;;;5.32;2.83;;;16.10;95.80;;;12.58;98.31;100796.78;5020062;28;20061;-78
2022/06/15 01:33:15;;;;;;;11.15;3.40;;;16.00;95.80;;;12.54;98.26;100792.75;5029162;28;20128;-78
2022/06/15 01:35:54;;;;;;;9.07;3.30;;;16.00;95.80;;;12.53;99.11;100794.66;5028583;28;20419;-78
2022/06/15 01:38:31;;;;;;;7.90;3.33;;;16.00;95.80;;;12.48;99.07;100794.38;5030212;28;20212;-78
2022/06/15 01:41:10;;;;;;;7.43;3.45;;;16.00;95.80;;;12.49;98.91;100787.88;5025456;28;20052;-78
2022/06/15 01:43:49;;;;;;;7.75;3.05;;;15.90;96.10;;;12.48;98.91;100789.75;5027390;28;20506;-77
2022/06/15 01:46:18;;;;;;;7.45;3.75;;;15.90;96.20;;;12.47;98.73;100789.91;5029439;28;20073;-78
2022/06/15 01:48:49;;;;;;;8.63;3.60;;;15.90;96.20;;;12.42;100.00;100787.78;5032608;28;20053;-78
2022/06/15 01:51:23;;;;;;;9.70;3.17;;;15.90;96.70;;;12.36;100.00;100796.72;5025464;28;20061;-77
2022/06/15 01:54:00;;;;;;;9.55;3.40;;;15.80;97.20;;;12.32;100.00;100789.97;5028876;28;20801;-78
2022/06/15 01:56:35;;;;;;;9.18;3.45;;;15.80;97.20;;;12.31;100.00;100782.81;5028230;28;20049;-77
2022/06/15 01:59:08;;;;;;;7.45;3.50;;;15.80;97.30;;;12.26;100.00;100791.56;5028881;28;20037;-78
2022/06/15 02:01:48;;;;;;;8.10;3.15;;;15.70;97.20;;;12.24;100.00;100787.31;5038802;28;20054;-77
2022/06/15 02:04:27;;;;;;;8.70;3.38;;;15.70;97.40;;;12.20;100.00;100778.66;5027134;28;20068;-78
2022/06/15 02:07:07;;;;;;;9.60;3.42;;;15.70;97.20;;;12.16;100.00;100779.22;5020573;28;20156;-78
2022/06/15 02:09:48;;;;;;;6.87;3.20;;;15.70;97.30;;;12.15;100.00;100777.53;5035637;28;20064;-78
2022/06/15 02:12:21;;;;;;;9.18;4.30;;;15.70;97.50;;;12.13;100.00;100781.31;5044915;28;20080;-78
2022/06/15 02:14:56;;;;;;;7.93;3.42;;;15.60;97.40;;;12.10;100.00;100773.50;5044597;28;20037;-78
2022/06/15 02:17:29;;;;;;;8.30;3.55;;;15.60;97.40;;;12.11;100.00;100767.00;5027010;28;20100;-78
2022/06/15 02:20:05;;;;;;;8.23;3.50;;;15.60;97.50;;;12.11;100.00;100764.28;5019461;28;20057;-78
2022/06/15 02:22:36;;;;;;;9.85;3.47;;;15.60;97.50;;;12.06;100.00;100777.63;5028136;28;20045;-78
2022/06/15 02:25:09;;;;;;;7.47;3.60;;;15.60;97.60;;;12.06;100.00;100780.34;5024049;28;20081;-78
2022/06/15 02:27:39;;;;;;;8.13;3.72;;;15.50;97.80;;;12.04;100.00;100766.06;5033050;28;20453;-78
2022/06/15 02:30:13;;;;;;;9.93;3.95;;;15.50;97.80;;;12.00;100.00;100770.22;5064885;28;20045;-78
2022/06/15 02:32:46;;;;;;;8.82;3.90;;;15.50;98.00;;;11.95;100.00;100778.09;5065085;28;20090;-78
2022/06/15 02:35:17;;;;;;;10.80;4.00;;;15.50;98.10;;;11.95;100.00;100774.53;5048528;28;20076;-78
2022/06/15 02:37:47;;;;;;;10.25;4.00;;;15.40;97.80;;;11.93;100.00;100775.53;5029652;28;20042;-78
2022/06/15 02:40:19;;;;;;;7.30;3.60;;;15.40;98.10;;;11.91;100.00;100768.59;5044781;28;20049;-78
2022/06/15 02:42:48;;;;;;;8.05;3.40;;;15.40;98.00;;;11.90;100.00;100764.19;5041244;28;20045;-78
2022/06/15 02:45:24;;;;;;;9.45;3.85;;;15.40;98.00;;;11.89;100.00;100771.50;5041411;28;20043;-78
2022/06/15 02:47:55;;;;;;;7.85;4.10;;;15.40;98.20;;;11.88;100.00;100771.66;5044687;28;20080;-78
2022/06/15 02:50:32;;;;;;;6.70;3.83;;;15.40;98.50;;;11.84;100.00;100764.88;5044091;28;20056;-78
2022/06/15 02:53:07;;;;;;;13.65;4.20;;;15.40;98.40;;;11.80;100.00;100763.56;5060781;22;20046;-79
2022/06/15 02:55:36;;;;;;;12.13;4.05;;;15.30;98.40;;;11.77;100.00;100764.81;5035647;28;20085;-78
2022/06/15 02:58:08;;;;;;;8.90;4.00;;;15.30;98.40;;;11.73;100.00;100764.31;5031151;28;20104;-78
2022/06/15 03:00:43;;;;;;;9.80;4.20;;;15.30;98.50;;;11.72;100.00;100756.31;5045413;28;20046;-78
2022/06/15 03:03:15;;;;;;;11.57;4.05;;;15.30;98.60;;;11.70;100.00;100763.84;5031539;28;20069;-79
2022/06/15 03:05:47;;;;;;;10.18;3.45;;;15.20;98.70;;;11.69;100.00;100765.72;5032150;28;20050;-79
2022/06/15 03:08:15;;;;;;;10.55;4.10;;;15.20;98.80;;;11.66;100.00;100763.38;5017379;28;20057;-79
2022/06/15 03:10:43;;;;;;;8.05;3.65;;;15.20;98.70;;;11.63;100.00;100752.84;5013074;28;20411;-78
2022/06/15 03:13:10;;;;;;;8.00;3.83;;;15.20;98.80;;;11.67;100.00;100759.63;5011846;28;20923;-78
2022/06/15 03:15:38;;;;;;;10.05;3.90;;;15.20;98.90;;;11.65;100.00;100764.41;5041398;28;20045;-78
2022/06/15 03:18:07;;;;;;;9.55;4.10;;;15.20;99.20;;;11.59;100.00;100773.31;5031405;28;20049;-78
2022/06/15 03:20:35;;;;;;;9.63;4.43;;;15.10;99.20;;;11.61;100.00;100775.84;5030333;28;20045;-78
2022/06/15 03:23:06;;;;;;;7.88;4.05;;;15.10;99.30;;;11.61;100.00;100770.41;5021522;28;20469;-78
2022/06/15 03:25:35;;;;;;;8.65;4.30;;;15.10;99.40;;;11.60;100.00;100769.56;5026951;28;20092;-79
2022/06/15 03:28:06;;;;;;;11.80;4.50;;;15.10;99.40;;;11.60;100.00;100772.28;5046014;28;20140;-78
2022/06/15 03:30:34;;;;;;;9.00;3.90;;;15.10;99.60;;;11.65;100.00;100766.28;5016490;28;20046;-79
2022/06/15 03:33:06;;;;;;;9.63;4.30;;;15.10;99.50;;;11.68;100.00;100776.81;5047851;28;20542;-78
2022/06/15 03:35:35;;;;;;;9.45;4.07;;;15.10;99.70;;;11.69;100.00;100776.63;5015013;28;20045;-78
2022/06/15 03:38:12;;;;;;;7.07;3.95;;;15.00;99.70;;;11.72;100.00;100778.97;5036851;28;20573;-78
2022/06/15 03:40:48;;;;;;;7.88;3.90;;;15.10;99.90;;;11.73;100.00;100779.84;5042363;28;20446;-78
2022/06/15 03:43:17;;;;;;;11.20;4.77;;;15.10;99.90;;;11.76;100.00;100770.44;5048065;28;20144;-78
2022/06/15 03:45:44;;;;;;;9.05;4.03;;;15.10;99.90;;;11.79;100.00;100773.63;5030599;28;20580;-78
2022/06/15 03:48:13;;;;;;;8.95;4.43;;;15.10;99.90;;;11.84;100.00;100770.34;5028602;28;20095;-78
2022/06/15 03:50:45;;;;;;;6.60;4.20;;;15.10;99.90;;;11.84;100.00;100770.34;5046330;28;20118;-78
2022/06/15 03:53:14;;;;;;;8.25;4.05;;;15.10;99.90;;;11.89;100.00;100778.81;5012196;28;20049;-78
2022/06/15 03:55:44;;;;;;;8.98;4.50;;;15.10;99.90;;;12.04;100.00;100771.53;5027836;28;20546;-78
2022/06/15 03:58:19;;;;;;;7.57;4.57;;;15.10;99.90;;;12.07;100.00;100776.59;5027709;28;20156;-78
2022/06/15 04:00:51;;;;;;;9.18;4.40;;;15.10;99.90;;;12.13;100.00;100775.84;5046003;28;20041;-78
2022/06/15 04:03:20;;;;;;;7.45;4.25;;;15.20;99.90;;;12.12;100.00;100774.13;5016820;28;20046;-79
2022/06/15 04:06:09;;;;;;;8.32;4.00;;;15.20;99.90;;;12.17;100.00;100772.75;5026575;28;20045;-79
2022/06/15 04:08:43;;;;;;;9.27;4.57;;;15.20;99.90;;;12.22;100.00;100773.00;5046406;28;20045;-79
2022/06/15 04:14:15;;;;;;;9.50;4.85;;;15.20;99.90;;;12.40;100.00;100770.75;5039699;28;20084;-79
2022/06/15 04:16:53;;;;;;;17.73;5.38;;;15.30;99.90;;;12.50;100.00;100767.72;5011112;28;20053;-79
2022/06/15 04:19:26;;;;;;;9.35;5.03;;;15.30;99.90;;;12.65;100.00;100768.53;5019546;28;20581;-80
2022/06/15 04:21:59;;;;;;;11.23;5.47;;;15.30;99.90;;;12.74;100.00;100771.13;5022025;28;20056;-79
2022/06/15 04:24:31;;;;;;;10.32;5.15;;;15.40;99.90;;;12.86;100.00;100775.06;5034454;28;20049;-79
2022/06/15 04:27:00;;;;;;;12.30;5.38;;;15.50;99.90;;;12.99;100.00;100771.63;5035620;28;20073;-79
2022/06/15 04:29:28;;;;;;;12.25;4.85;;;15.50;99.90;;;13.12;100.00;100774.50;5035922;28;20419;-79
2022/06/15 04:31:57;;;;;;;10.73;5.30;;;15.60;99.90;;;13.29;99.38;100772.38;5042278;28;20064;-79
2022/06/15 04:34:27;;;;;;;14.95;5.43;;;15.70;99.90;;;13.49;97.88;100775.28;5040288;28;20137;-80
2022/06/15 04:36:56;;;;;;;14.13;5.97;;;15.80;99.50;;;13.65;97.45;100771.41;5036697;28;20109;-79
2022/06/15 04:39:25;;;;;;;12.60;6.35;;;15.90;99.40;;;13.83;97.15;100777.22;5052740;28;20127;-79
2022/06/15 04:41:53;;;;;;;13.32;5.93;;;16.00;99.20;;;13.97;95.80;100772.69;5031326;28;20128;-79
2022/06/15 04:44:22;;;;;;;14.90;6.07;;;16.10;98.80;;;14.14;94.51;100775.94;5047154;28;20053;-79
2022/06/15 04:46:53;;;;;;;12.77;5.88;;;16.20;98.10;;;14.30;93.50;100763.84;5031490;28;20045;-86
2022/06/15 04:49:23;;;;;;;12.23;6.35;;;16.30;98.00;;;14.45;91.37;100767.28;5026956;28;20049;-78
2022/06/15 04:51:53;;;;;;;13.77;6.20;;;16.40;97.30;;;14.57;91.70;100773.03;5043663;28;20125;-79
2022/06/15 04:54:23;;;;;;;12.18;5.45;;;16.50;97.20;;;14.74;91.01;100779.00;5014585;28;20055;-79
2022/06/15 04:56:55;;;;;;;12.48;6.13;;;16.60;96.90;;;14.83;89.79;100776.91;5030406;28;20045;-79
2022/06/15 04:59:22;;;;;;;9.48;5.90;;;16.70;96.70;;;14.93;88.60;100780.13;5020286;28;20052;-80
2022/06/15 05:01:52;;;;;;;14.52;5.90;;;16.80;96.30;;;15.00;88.82;100777.38;5026824;28;20057;-79
2022/06/15 05:04:20;;;;;;;13.50;5.75;;;16.90;96.00;;;15.17;88.98;100773.22;5036948;28;20410;-79
2022/06/15 05:06:48;;;;;;;13.27;6.15;;;16.90;96.30;;;15.32;86.29;100769.41;5038081;28;20141;-79
2022/06/15 05:09:16;;;;;;;12.48;6.00;;;17.00;95.10;;;15.40;86.34;100771.94;5029797;28;20103;-79
2022/06/15 05:11:47;;;;;;;15.05;6.15;;;17.10;95.00;;;15.54;85.05;100767.34;5029924;28;20046;-79
2022/06/15 05:14:15;;;;;;;14.20;5.88;;;17.20;94.80;;;15.56;86.76;100770.72;5029037;28;20053;-79
2022/06/15 05:16:45;;;;;;;11.10;5.65;;;17.20;94.70;;;15.62;84.47;100773.44;5029760;28;20056;-79
2022/06/15 05:19:25;;;;;;;16.52;5.85;;;17.30;94.30;;;15.74;84.15;100765.44;5034053;28;20050;-79
2022/06/15 05:21:53;;;;;;;12.80;5.95;;;17.30;93.70;;;15.78;82.97;100771.34;5032527;28;20056;-79
2022/06/15 05:24:21;;;;;;;14.20;5.75;;;17.40;93.40;;;15.75;82.34;100772.63;5044505;28;20453;-79
2022/06/15 05:26:53;;;;;;;11.23;6.47;;;17.40;93.10;;;15.82;81.97;100776.22;5026128;28;20579;-79
2022/06/15 05:29:20;;;;;;;19.23;6.97;;;17.40;93.10;;;15.79;81.48;100770.28;5024494;28;20042;-79
2022/06/15 05:31:54;;;;;;;12.73;6.20;;;17.40;92.80;;;15.79;81.95;100775.78;5044442;28;20038;-79
2022/06/15 05:34:21;;;;;;;11.73;5.90;;;17.40;92.90;;;15.84;82.14;100767.78;5012684;28;20042;-81
2022/06/15 05:36:48;;;;;;;12.93;6.55;;;17.40;92.90;;;15.86;81.69;100773.03;5010127;28;20736;-79
2022/06/15 05:39:15;;;;;;;18.65;7.32;;;17.40;92.50;;;15.72;82.07;100781.22;5018879;28;20468;-79
2022/06/15 05:41:44;;;;;;;13.85;6.85;;;17.50;92.70;;;15.73;82.34;100768.38;5043598;28;20061;-81
2022/06/15 05:44:15;;;;;;;12.57;6.40;;;17.50;92.80;;;15.80;82.00;100761.00;5038191;28;20136;-81
2022/06/15 05:46:44;;;;;;;16.67;6.65;;;17.50;92.60;;;15.82;81.57;100759.75;5027592;28;20050;-81
2022/06/15 05:49:35;;;;;;;14.40;6.20;;;17.50;92.50;;;15.81;82.01;100768.19;4982372;28;20045;-81
2022/06/15 05:52:04;;;;;;;14.07;6.55;;;17.60;92.60;;;15.93;82.96;100763.72;5041510;28;20049;-80
2022/06/15 05:54:34;;;;;;;14.38;6.47;;;17.60;93.30;;;16.02;81.22;100775.31;5022397;28;20041;-81
2022/06/15 05:57:02;;;;;;;13.65;6.55;;;17.70;92.70;;;17.47;76.93;100774.84;5028059;28;20061;-81
2022/06/15 05:59:31;;;;;;;16.85;6.30;;;17.90;92.10;;;20.43;66.39;100765.91;5010550;28;20112;-81
2022/06/15 06:01:58;;;;;;;12.63;6.55;;;18.30;91.30;;;22.55;57.72;100759.00;5018738;28;20140;-81
2022/06/15 06:04:25;;;;;;;17.63;5.78;;;18.80;89.80;;;24.66;50.96;100757.97;5014385;28;20041;-79
2022/06/15 06:06:52;;;;;;;11.68;5.28;;;19.30;88.20;;;26.22;45.82;100751.09;5018686;28;20038;-80
2022/06/15 06:09:19;;;;;;;12.77;5.65;;;19.70;87.40;;;27.19;43.62;100762.91;5018204;28;20585;-80
2022/06/15 06:11:47;;;;;;;14.55;5.75;;;20.10;86.00;;;28.08;40.32;100757.16;5030051;28;20462;-80
2022/06/15 06:14:14;;;;;;;11.93;5.47;;;20.50;84.70;;;29.21;36.87;100756.56;5027273;28;20048;-83
2022/06/15 06:16:42;;;;;;;12.45;5.72;;;20.90;82.60;;;29.91;35.11;100752.06;5029461;28;20045;-80
2022/06/15 06:19:09;;;;;;;12.88;4.93;;;21.20;81.20;;;30.78;33.77;100758.69;5016490;28;20095;-79
2022/06/15 06:21:37;;;;;;;14.48;5.28;;;21.50;81.10;;;31.75;31.65;100757.56;5025366;28;20124;-80
2022/06/15 06:24:05;;;;;;;10.00;5.05;;;21.80;79.50;;;32.09;30.88;100756.94;5013070;28;20046;-83
2022/06/15 06:26:33;;;;;;;11.27;4.40;;;22.00;79.10;;;32.41;30.53;100756.91;5008930;28;20042;-81
2022/06/15 06:29:01;;;;;;;8.50;4.47;;;22.30;78.70;;;32.88;29.57;100763.69;5020799;28;20124;-82
2022/06/15 06:31:29;;;;;;;11.73;5.20;;;22.50;78.00;;;33.04;28.96;100758.38;5026945;28;20049;-82
2022/06/15 06:33:58;;;;;;;14.75;5.18;;;22.50;77.60;;;30.88;31.90;100762.44;5033843;28;20072;-82
2022/06/15 06:36:31;;;;;;;11.07;4.75;;;22.60;78.10;;;26.99;38.73;100764.72;5032678;28;20120;-81
2022/06/15 06:38:58;;;;;;;10.57;5.13;;;22.60;78.40;;;24.38;43.30;100765.63;5021393;28;20053;-81
2022/06/15 06:41:28;;;;;;;13.52;4.97;;;22.50;77.50;;;22.94;47.16;100770.00;5013631;28;20042;-81
2022/06/15 06:43:55;;;;;;;10.73;4.75;;;22.40;76.90;;;22.13;50.54;100778.94;5024849;28;20038;-82
2022/06/15 06:46:23;;;;;;;11.65;4.43;;;22.30;77.20;;;21.60;52.76;100774.78;5032907;28;20491;-81
2022/06/15 06:48:50;;;;;;;10.95;4.50;;;22.20;77.30;;;21.17;56.93;100777.06;5021105;28;20042;-81
2022/06/15 06:51:19;;;;;;;16.30;5.45;;;22.10;79.40;;;20.85;58.54;100776.75;5028824;28;20088;-81
2022/06/15 06:53:46;;;;;;;16.08;4.70;;;22.00;79.80;;;20.70;57.83;100777.28;5015416;28;20116;-81
2022/06/15 06:56:14;;;;;;;11.07;4.80;;;21.90;79.40;;;20.51;58.59;100773.81;5012151;28;20245;-81
2022/06/15 06:58:42;;;;;;;13.25;4.78;;;21.80;79.40;;;20.39;60.98;100772.97;5014434;28;20590;-81
2022/06/15 07:01:09;;;;;;;11.68;4.85;;;21.70;81.10;;;20.41;60.34;100770.81;5013269;28;20058;-81
2022/06/15 07:03:36;;;;;;;10.23;4.53;;;21.60;80.90;;;20.24;59.27;100774.34;5014511;28;20141;-81
2022/06/15 07:06:06;;;;;;;11.27;4.65;;;21.50;79.80;;;20.14;63.18;100774.09;5012832;28;20068;-81
2022/06/15 07:08:37;;;;;;;12.73;5.25;;;21.40;81.50;;;20.23;61.82;100778.16;5025748;28;20513;-81
2022/06/15 07:11:09;;;;;;;11.98;4.65;;;21.40;81.80;;;20.17;63.23;100781.91;5033095;28;20088;-81
2022/06/15 07:13:37;;;;;;;13.95;4.78;;;21.30;81.70;;;20.25;60.42;100781.53;5022459;28;20141;-81
2022/06/15 07:16:05;;;;;;;11.02;4.82;;;21.30;80.50;;;20.23;60.80;100786.47;5013086;28;20038;-81
2022/06/15 07:18:32;;;;;;;10.88;4.53;;;21.30;81.00;;;20.31;63.56;100786.13;5014480;28;20038;-81
2022/06/15 07:21:03;;;;;;;10.88;4.50;;;21.20;82.70;;;20.21;61.81;100785.88;5013327;28;20046;-81
2022/06/15 07:23:30;;;;;;;10.80;4.97;;;21.20;82.00;;;20.25;63.02;100792.59;5014228;28;20042;-81
2022/06/15 07:26:02;;;;;;;13.60;5.05;;;21.20;82.80;;;20.19;61.13;100796.31;5012950;28;20042;-81
2022/06/15 07:28:30;;;;;;;10.77;4.35;;;21.20;81.30;;;20.16;62.67;100793.19;5020658;28;20037;-81
2022/06/15 07:30:57;;;;;;;16.73;5.10;;;21.20;82.60;;;20.15;62.17;100784.06;5032940;28;20558;-82
2022/06/15 07:33:24;;;;;;;12.60;4.68;;;21.20;81.90;;;20.17;61.66;100784.69;5031056;28;20096;-81
2022/06/15 07:35:52;;;;;;;19.45;4.68;;;21.10;81.60;;;20.28;60.66;100791.28;5032512;28;20038;-81
2022/06/15 07:38:20;;;;;;;13.57;4.53;;;21.20;81.50;;;20.26;61.13;100790.69;5026961;28;20136;-81
2022/06/15 07:40:47;;;;;;;20.15;4.70;;;21.20;81.30;;;20.31;60.34;100785.25;5012517;28;20042;-81
2022/06/15 07:43:16;;;;;;;9.80;4.10;;;21.10;81.00;;;20.38;64.53;100785.13;5015618;28;20052;-85
2022/06/15 07:45:44;;;;;;;11.30;4.43;;;21.20;84.40;;;20.36;61.00;100790.06;5012918;28;20149;-84
2022/06/15 07:50:57;;;;;;;11.52;3.88;;;21.20;81.40;;;20.30;63.80;100789.13;5030794;28;20068;-84
2022/06/15 07:53:24;;;;;;;10.13;3.95;;;21.20;83.20;;;20.44;63.14;100784.16;5032316;28;20535;-84
2022/06/15 07:55:52;;;;;;;6.75;3.35;;;21.20;84.00;;;20.44;62.10;100779.44;5031388;28;20072;-84
2022/06/15 07:58:21;;;;;;;15.50;3.70;;;21.20;82.70;;;20.47;61.30;100778.97;5031658;28;20053;-84
2022/06/15 08:00:50;;;;;;;8.48;3.35;;;21.20;82.10;;;20.58;63.32;100785.56;5032662;28;20117;-84
2022/06/15 08:03:19;;;;;;;11.00;3.72;;;21.20;83.80;;;20.76;64.48;100786.50;5020196;28;20051;-84
2022/06/15 08:05:50;;;;;;;6.57;3.70;;;21.30;85.80;;;20.73;59.78;100781.47;5031806;28;20048;-84
2022/06/15 08:08:23;;;;;;;10.20;4.10;;;21.30;81.70;;;20.62;64.12;100791.47;5012997;28;20096;-82
2022/06/15 08:10:50;;;;;;;9.75;3.20;;;21.30;84.60;;;20.64;60.70;100784.63;5025013;28;20050;-81
2022/06/15 08:13:18;;;;;;;15.68;3.63;;;21.30;82.00;;;20.68;61.50;100783.03;5031317;28;20116;-81
2022/06/15 08:15:50;;;;;;;12.23;3.85;;;21.30;82.90;;;20.81;62.64;100784.69;5031644;28;20041;-81
2022/06/15 08:18:22;;;;;;;7.15;3.28;;;21.40;84.00;;;20.61;57.96;100779.56;5031907;28;20033;-81
2022/06/15 08:20:54;;;;;;;9.80;3.28;;;21.30;80.00;;;20.64;60.02;100778.25;5032189;28;20589;-81
2022/06/15 08:23:26;;;;;;;13.57;3.50;;;21.30;80.80;;;20.72;59.84;100780.63;5016714;28;20044;-81
2022/06/15 08:25:58;;;;;;;9.18;3.22;;;21.30;81.40;;;20.79;60.25;100791.53;5012039;28;20060;-81
2022/06/15 08:28:29;;;;;;;7.88;2.97;;;21.30;81.30;;;20.81;59.67;100784.69;5012025;28;20045;-81
2022/06/15 08:30:58;;;;;;;9.35;3.25;;;21.40;81.10;;;20.83;58.46;100784.44;5012253;28;20551;-81
2022/06/15 08:33:27;;;;;;;7.85;3.53;;;21.40;79.80;;;20.66;57.72;100782.44;5027113;28;20050;-81
2022/06/15 08:35:55;;;;;;;14.60;3.70;;;21.40;78.70;;;20.57;58.68;100777.53;5011731;28;20041;-81
2022/06/15 08:38:25;;;;;;;10.02;3.13;;;21.40;79.20;;;20.70;59.49;100775.34;5011853;28;20104;-81
2022/06/15 08:40:56;;;;;;;13.18;3.47;;;21.40;80.20;;;20.88;59.79;100773.47;5029222;28;20193;-81
2022/06/15 08:43:38;;;;;;;8.50;2.92;;;21.50;81.00;;;20.97;58.41;100774.75;5031527;28;20100;-81
2022/06/15 08:46:27;;;;;;;7.88;3.45;;;21.50;80.50;;;21.05;59.19;100779.88;5031197;28;20655;-80
2022/06/15 08:49:12;;;;;;;11.55;3.42;;;21.60;82.50;;;20.89;58.21;100776.00;5031472;28;20136;-81
2022/06/15 08:51:42;;;;;;;13.75;3.50;;;21.60;79.10;;;20.86;57.62;100775.63;5031563;28;20049;-81
2022/06/15 08:54:17;;;;;;;8.23;2.90;;;21.60;78.70;;;20.98;58.81;100781.97;5069692;22;20049;-85
2022/06/15 08:56:49;;;;;;;13.38;3.47;;;21.60;79.70;;;20.92;57.60;100776.56;5050901;28;20094;-85
2022/06/15 08:59:28;;;;;;;8.52;3.60;;;21.60;78.80;;;20.98;57.93;100776.44;5051263;28;20561;-85
2022/06/15 09:02:07;;;;;;;9.07;3.17;;;21.60;79.40;;;21.03;60.05;100782.06;5050484;28;20045;-85
2022/06/15 09:04:47;;;;;;;10.52;3.53;;;21.70;81.10;;;21.06;57.03;100781.56;5033480;28;20041;-78
2022/06/15 09:07:59;;;;;;;6.90;2.85;;;21.70;78.40;;;20.94;56.16;100783.53;5021591;28;20060;-83
2022/06/15 09:10:45;;;;;;;8.80;3.03;;;21.60;77.10;;;21.09;58.52;100778.31;5009998;28;20424;-82
2022/06/15 09:13:48;;;;;;;8.07;2.78;;;21.70;80.50;;;21.15;58.16;100778.38;5028133;28;20470;-83
2022/06/15 09:16:25;;;;;;;10.48;3.30;;;21.80;80.10;;;21.16;55.87;100777.31;5029649;28;20049;-82
2022/06/15 09:19:01;;;;;;;11.27;3.40;;;21.70;77.40;;;21.30;61.16;100778.66;5011216;28;20556;-82
2022/06/15 09:21:34;;;;;;;10.25;3.20;;;21.90;82.40;;;21.42;59.45;100773.09;5026839;28;20526;-82
2022/06/15 09:24:09;;;;;;;12.48;3.72;;;22.00;80.90;;;21.45;58.24;100778.13;5030828;28;20087;-82
2022/06/15 09:26:41;;;;;;;11.10;3.30;;;22.00;79.80;;;21.46;55.04;100775.13;5013686;28;20048;-82
2022/06/15 09:29:15;;;;;;;9.02;3.35;;;22.00;77.60;;;21.43;56.02;100775.56;5010860;28;20052;-82
2022/06/15 09:31:50;;;;;;;9.07;3.80;;;22.00;77.30;;;21.44;56.96;100770.94;5027623;28;20079;-82
2022/06/15 09:34:26;;;;;;;8.90;3.38;;;22.00;78.60;;;21.51;59.21;100779.06;5028946;28;20478;-82
2022/06/15 09:36:56;;;;;;;14.43;4.78;;;22.00;79.90;;;21.46;56.30;100772.34;5027700;28;20392;-82
2022/06/15 09:39:25;;;;;;;12.07;4.33;;;22.00;77.60;;;21.55;55.77;100777.47;5030445;28;20124;-82
2022/06/15 09:42:07;;;;;;;14.90;4.15;;;22.10;77.90;;;21.57;56.70;100769.75;5012135;28;20308;-82
2022/06/15 09:44:52;;;;;;;13.73;4.68;;;22.10;78.10;;;21.61;56.77;100771.78;5010482;28;20049;-83
2022/06/15 09:47:38;;;;;;;11.93;4.03;;;22.10;77.90;;;21.56;54.92;100774.44;5024388;28;20040;-82
2022/06/15 09:50:23;;;;;;;13.38;5.07;;;22.10;76.20;;;21.43;53.64;100767.25;5011227;28;20064;-82
2022/06/15 09:53:11;;;;;;;14.18;5.03;;;22.00;74.90;;;21.44;55.06;100760.69;5029726;28;20042;-82
2022/06/15 09:55:42;;;;;;;9.20;4.30;;;22.00;76.60;;;21.52;56.02;100758.59;5026586;28;20120;-82
2022/06/15 09:58:14;;;;;;;12.48;4.88;;;22.10;77.90;;;21.48;54.45;100759.09;5015245;28;20030;-82
2022/06/15 10:00:42;;;;;;;9.55;3.75;;;22.10;75.60;;;21.54;54.95;100768.31;5015215;28;20104;-82
2022/06/15 10:03:24;;;;;;;11.05;4.53;;;22.10;76.10;;;21.54;52.76;100764.72;5010576;28;20046;-81
2022/06/15 10:05:58;;;;;;;12.98;4.47;;;22.10;73.80;;;21.61;53.40;100760.69;5025087;28;20073;-83
2022/06/15 10:08:25;;;;;;;11.73;4.82;;;22.20;74.50;;;21.64;53.91;100757.41;5018634;28;20046;-83
2022/06/15 10:10:56;;;;;;;15.85;5.00;;;22.20;75.30;;;21.53;54.08;100758.31;5018848;28;20049;-82
2022/06/15 10:13:32;;;;;;;;;;;22.10;74.80;;;21.44;52.66;100752.38;5018161;28;20037;-81
2022/06/15 10:16:02;;;;;;;13.32;3.83;;;22.10;74.00;;;21.57;55.64;100759.53;5039987;28;20398;-82
2022/06/15 10:18:41;;;;;;;8.68;3.78;;;22.10;76.80;;;21.65;55.35;100753.56;5012816;28;20128;-86
2022/06/15 10:21:23;;;;;;;11.55;3.88;;;22.20;76.70;;;21.67;55.32;100747.75;5017781;28;20092;-83
2022/06/15 10:23:58;;;;;;;8.10;3.72;;;22.30;76.50;;;21.74;55.78;100748.44;5025826;28;20479;-81
2022/06/15 10:26:38;;;;;;;13.25;5.45;;;22.30;76.40;;;21.75;53.32;100761.19;5021564;28;20116;-83
2022/06/15 10:29:32;;;;;;;11.25;4.20;;;22.30;74.60;;;21.64;52.92;100754.63;5020862;28;20403;-84
2022/06/15 10:32:18;;;;;;;11.52;4.45;;;22.20;74.10;;;21.69;54.32;100755.81;5018383;28;20463;-83
2022/06/15 10:35:07;;;;;;;12.63;4.45;;;22.30;75.80;;;21.66;53.09;100757.16;5024057;28;20507;-84
2022/06/15 10:37:42;;;;;;;9.38;3.92;;;22.30;74.40;;;21.61;53.17;100751.53;5027988;28;20041;-84